sensor_id;sensor_type;location;lat;lon;timestamp;temperature;humidity
32215;DHT22;18708;53.124;23.190;2023-06-19T00:01:29;14.00;99.90
32215;DHT22;18708;53.124;23.190;2023-06-19T00:03:55;14.00;99.90
32215;DHT22;18708;53.124;23.190;2023-06-19T00:06:21;14.00;99.90
32215;DHT22;18708;53.124;23.190;2023-06-19T00:08:46;13.90;99.90
32215;DHT22;18708;53.124;23.190;2023-06-19T00:11:12;13.90;99.90
32215;DHT22;18708;53.124;23.190;2023-06-19T00:13:37;14.00;99.90
32215;DHT22;18708;53.124;23.190;2023-06-19T00:16:03;13.90;99.90
32215;DHT22;18708;53.124;23.190;2023-06-19T00:18:30;13.90;99.90
32215;DHT22;18708;53.124;23.190;2023-06-19T00:20:56;13.80;99.90
32215;DHT22;18708;53.124;23.190;2023-06-19T00:23:25;13.80;99.90
32215;DHT22;18708;53.124;23.190;2023-06-19T00:25:50;13.80;99.90
32215;DHT22;18708;53.124;23.190;2023-06-19T00:28:16;13.80;99.90
32215;DHT22;18708;53.124;23.190;2023-06-19T00:30:45;13.80;99.90
32215;DHT22;18708;53.124;23.190;2023-06-19T00:33:11;13.80;99.90
32215;DHT22;18708;53.124;23.190;2023-06-19T00:35:36;13.70;99.90
32215;DHT22;18708;53.124;23.190;2023-06-19T00:38:02;13.70;99.90
32215;DHT22;18708;53.124;23.190;2023-06-19T00:40:30;13.70;99.90
32215;DHT22;18708;53.124;23.190;2023-06-19T00:42:56;13.70;99.90
32215;DHT22;18708;53.124;23.190;2023-06-19T00:45:23;13.70;99.90
32215;DHT22;18708;53.124;23.190;2023-06-19T00:47:55;13.60;99.90
32215;DHT22;18708;53.124;23.190;2023-06-19T00:50:24;13.60;99.90
32215;DHT22;18708;53.124;23.190;2023-06-19T00:52:50;13.50;99.90
32215;DHT22;18708;53.124;23.190;2023-06-19T00:55:17;13.50;99.90
32215;DHT22;18708;53.124;23.190;2023-06-19T00:57:43;13.50;99.90
32215;DHT22;18708;53.124;23.190;2023-06-19T01:00:10;13.50;99.90
32215;DHT22;18708;53.124;23.190;2023-06-19T01:02:38;13.50;99.90
32215;DHT22;18708;53.124;23.190;2023-06-19T01:05:04;13.50;99.90
32215;DHT22;18708;53.124;23.190;2023-06-19T01:10:18;13.40;99.90
32215;DHT22;18708;53.124;23.190;2023-06-19T01:12:52;13.40;99.90
32215;DHT22;18708;53.124;23.190;2023-06-19T01:15:18;13.40;99.90
32215;DHT22;18708;53.124;23.190;2023-06-19T01:17:46;13.40;99.90
32215;DHT22;18708;53.124;23.190;2023-06-19T01:20:13;13.30;99.90
32215;DHT22;18708;53.124;23.190;2023-06-19T01:22:39;13.30;99.90
32215;DHT22;18708;53.124;23.190;2023-06-19T01:25:09;13.20;99.90
32215;DHT22;18708;53.124;23.190;2023-06-19T01:27:35;13.20;99.90
32215;DHT22;18708;53.124;23.190;2023-06-19T01:30:02;13.20;99.90
32215;DHT22;18708;53.124;23.190;2023-06-19T01:35:02;13.10;99.90
32215;DHT22;18708;53.124;23.190;2023-06-19T01:37:30;13.20;99.90
32215;DHT22;18708;53.124;23.190;2023-06-19T01:39:59;13.30;99.90
32215;DHT22;18708;53.124;23.190;2023-06-19T01:42:27;13.30;99.90
32215;DHT22;18708;53.124;23.190;2023-06-19T01:44:53;13.30;99.90
32215;DHT22;18708;53.124;23.190;2023-06-19T01:47:19;13.20;99.90
32215;DHT22;18708;53.124;23.190;2023-06-19T01:49:49;13.20;99.90
32215;DHT22;18708;53.124;23.190;2023-06-19T01:52:15;13.30;99.90
32215;DHT22;18708;53.124;23.190;2023-06-19T01:54:40;13.30;99.90
32215;DHT22;18708;53.124;23.190;2023-06-19T01:57:07;13.30;99.90
32215;DHT22;18708;53.124;23.190;2023-06-19T01:59:33;13.40;99.90
32215;DHT22;18708;53.124;23.190;2023-06-19T02:01:58;13.40;99.90
32215;DHT22;18708;53.124;23.190;2023-06-19T02:04:24;13.40;99.90
32215;DHT22;18708;53.124;23.190;2023-06-19T02:06:49;13.40;99.90
32215;DHT22;18708;53.124;23.190;2023-06-19T02:09:16;13.40;99.90
32215;DHT22;18708;53.124;23.190;2023-06-19T02:11:41;13.40;99.90
32215;DHT22;18708;53.124;23.190;2023-06-19T02:14:09;13.40;99.90
32215;DHT22;18708;53.124;23.190;2023-06-19T02:16:34;13.40;99.90
32215;DHT22;18708;53.124;23.190;2023-06-19T02:19:00;13.40;99.90
32215;DHT22;18708;53.124;23.190;2023-06-19T02:21:25;13.40;99.90
32215;DHT22;18708;53.124;23.190;2023-06-19T02:23:51;13.40;99.90
32215;DHT22;18708;53.124;23.190;2023-06-19T02:26:17;13.30;99.90
32215;DHT22;18708;53.124;23.190;2023-06-19T02:28:42;13.30;99.90
32215;DHT22;18708;53.124;23.190;2023-06-19T02:31:08;13.30;99.90
32215;DHT22;18708;53.124;23.190;2023-06-19T02:33:34;13.30;99.90
32215;DHT22;18708;53.124;23.190;2023-06-19T02:35:59;13.30;99.90
32215;DHT22;18708;53.124;23.190;2023-06-19T02:38:26;13.30;99.90
32215;DHT22;18708;53.124;23.190;2023-06-19T02:40:52;13.30;99.90
32215;DHT22;18708;53.124;23.190;2023-06-19T02:43:17;13.40;99.90
32215;DHT22;18708;53.124;23.190;2023-06-19T02:45:43;13.40;99.90
32215;DHT22;18708;53.124;23.190;2023-06-19T02:48:09;13.40;99.90
32215;DHT22;18708;53.124;23.190;2023-06-19T02:50:35;13.50;99.90
32215;DHT22;18708;53.124;23.190;2023-06-19T02:53:01;13.50;99.90
32215;DHT22;18708;53.124;23.190;2023-06-19T02:55:26;13.40;99.90
32215;DHT22;18708;53.124;23.190;2023-06-19T02:57:52;13.50;99.90
32215;DHT22;18708;53.124;23.190;2023-06-19T03:00:18;13.40;99.90
32215;DHT22;18708;53.124;23.190;2023-06-19T03:02:45;13.50;99.90
32215;DHT22;18708;53.124;23.190;2023-06-19T03:05:13;13.50;99.90
32215;DHT22;18708;53.124;23.190;2023-06-19T03:07:42;13.50;99.90
32215;DHT22;18708;53.124;23.190;2023-06-19T03:10:08;13.50;99.90
32215;DHT22;18708;53.124;23.190;2023-06-19T03:12:34;13.50;99.90
32215;DHT22;18708;53.124;23.190;2023-06-19T03:14:59;13.50;99.90
32215;DHT22;18708;53.124;23.190;2023-06-19T03:17:25;13.50;99.90
32215;DHT22;18708;53.124;23.190;2023-06-19T03:19:51;13.50;99.90
32215;DHT22;18708;53.124;23.190;2023-06-19T03:22:19;13.50;99.90
32215;DHT22;18708;53.124;23.190;2023-06-19T03:24:45;13.50;99.90
32215;DHT22;18708;53.124;23.190;2023-06-19T03:27:10;13.50;99.90
32215;DHT22;18708;53.124;23.190;2023-06-19T03:29:36;13.50;99.90
32215;DHT22;18708;53.124;23.190;2023-06-19T03:32:02;13.50;99.90
32215;DHT22;18708;53.124;23.190;2023-06-19T03:34:27;13.50;99.90
32215;DHT22;18708;53.124;23.190;2023-06-19T03:36:53;13.60;99.90
32215;DHT22;18708;53.124;23.190;2023-06-19T03:39:19;13.60;99.90
32215;DHT22;18708;53.124;23.190;2023-06-19T03:41:45;13.70;99.90
32215;DHT22;18708;53.124;23.190;2023-06-19T03:44:10;13.80;99.90
32215;DHT22;18708;53.124;23.190;2023-06-19T03:46:36;13.80;99.90
32215;DHT22;18708;53.124;23.190;2023-06-19T03:49:01;13.90;99.90
32215;DHT22;18708;53.124;23.190;2023-06-19T03:51:30;14.00;99.90
32215;DHT22;18708;53.124;23.190;2023-06-19T03:53:56;14.10;99.90
32215;DHT22;18708;53.124;23.190;2023-06-19T03:56:22;14.10;99.90
32215;DHT22;18708;53.124;23.190;2023-06-19T03:58:47;14.20;99.90
32215;DHT22;18708;53.124;23.190;2023-06-19T04:01:13;14.40;99.90
32215;DHT22;18708;53.124;23.190;2023-06-19T04:03:38;14.40;99.90
32215;DHT22;18708;53.124;23.190;2023-06-19T04:06:04;14.50;99.90
32215;DHT22;18708;53.124;23.190;2023-06-19T04:08:30;14.50;99.90
32215;DHT22;18708;53.124;23.190;2023-06-19T04:10:56;14.60;99.90
32215;DHT22;18708;53.124;23.190;2023-06-19T04:13:22;14.60;99.90
32215;DHT22;18708;53.124;23.190;2023-06-19T04:15:48;14.60;99.90
32215;DHT22;18708;53.124;23.190;2023-06-19T04:18:13;14.70;99.90
32215;DHT22;18708;53.124;23.190;2023-06-19T04:20:39;14.70;99.90
32215;DHT22;18708;53.124;23.190;2023-06-19T04:23:05;14.80;99.90
32215;DHT22;18708;53.124;23.190;2023-06-19T04:25:31;14.80;99.90
32215;DHT22;18708;53.124;23.190;2023-06-19T04:27:57;14.80;99.90
32215;DHT22;18708;53.124;23.190;2023-06-19T04:30:22;14.80;99.90
32215;DHT22;18708;53.124;23.190;2023-06-19T04:32:48;14.80;99.90
32215;DHT22;18708;53.124;23.190;2023-06-19T04:35:14;14.90;99.90
32215;DHT22;18708;53.124;23.190;2023-06-19T04:37:39;15.00;99.90
32215;DHT22;18708;53.124;23.190;2023-06-19T04:40:05;15.00;99.90
32215;DHT22;18708;53.124;23.190;2023-06-19T04:42:33;14.90;99.90
32215;DHT22;18708;53.124;23.190;2023-06-19T04:44:58;14.90;99.90
32215;DHT22;18708;53.124;23.190;2023-06-19T04:47:25;15.00;99.90
32215;DHT22;18708;53.124;23.190;2023-06-19T04:49:50;15.00;99.90
32215;DHT22;18708;53.124;23.190;2023-06-19T04:52:16;15.10;99.90
32215;DHT22;18708;53.124;23.190;2023-06-19T04:54:43;15.20;99.90
32215;DHT22;18708;53.124;23.190;2023-06-19T04:57:08;15.30;99.90
32215;DHT22;18708;53.124;23.190;2023-06-19T04:59:35;15.30;99.90
32215;DHT22;18708;53.124;23.190;2023-06-19T05:02:02;15.20;99.90
32215;DHT22;18708;53.124;23.190;2023-06-19T05:04:27;15.30;99.90
32215;DHT22;18708;53.124;23.190;2023-06-19T05:06:55;15.60;99.90
32215;DHT22;18708;53.124;23.190;2023-06-19T05:09:21;15.70;99.90
32215;DHT22;18708;53.124;23.190;2023-06-19T05:11:47;15.60;99.90
32215;DHT22;18708;53.124;23.190;2023-06-19T05:14:12;15.70;99.90
32215;DHT22;18708;53.124;23.190;2023-06-19T05:16:39;15.80;99.90
32215;DHT22;18708;53.124;23.190;2023-06-19T05:19:05;15.90;99.90
32215;DHT22;18708;53.124;23.190;2023-06-19T05:21:31;16.00;99.90
32215;DHT22;18708;53.124;23.190;2023-06-19T05:23:57;16.30;99.90
32215;DHT22;18708;53.124;23.190;2023-06-19T05:26:22;16.50;99.90
32215;DHT22;18708;53.124;23.190;2023-06-19T05:28:49;16.70;99.90
32215;DHT22;18708;53.124;23.190;2023-06-19T05:31:15;17.00;99.90
32215;DHT22;18708;53.124;23.190;2023-06-19T05:33:41;17.00;99.90
32215;DHT22;18708;53.124;23.190;2023-06-19T05:36:07;17.10;99.90
32215;DHT22;18708;53.124;23.190;2023-06-19T05:38:33;17.10;99.90
32215;DHT22;18708;53.124;23.190;2023-06-19T05:40:58;17.30;99.90
32215;DHT22;18708;53.124;23.190;2023-06-19T05:43:25;17.50;99.90
32215;DHT22;18708;53.124;23.190;2023-06-19T05:45:54;17.70;99.90
32215;DHT22;18708;53.124;23.190;2023-06-19T05:48:21;17.90;99.90
32215;DHT22;18708;53.124;23.190;2023-06-19T05:50:47;18.10;99.90
32215;DHT22;18708;53.124;23.190;2023-06-19T05:53:13;18.10;99.90
32215;DHT22;18708;53.124;23.190;2023-06-19T05:55:39;18.30;99.90
32215;DHT22;18708;53.124;23.190;2023-06-19T05:58:04;18.50;99.90
32215;DHT22;18708;53.124;23.190;2023-06-19T06:00:30;18.60;99.90
32215;DHT22;18708;53.124;23.190;2023-06-19T06:02:57;19.00;99.90
32215;DHT22;18708;53.124;23.190;2023-06-19T06:05:26;19.20;99.90
32215;DHT22;18708;53.124;23.190;2023-06-19T06:07:53;19.40;99.90
32215;DHT22;18708;53.124;23.190;2023-06-19T06:10:23;19.50;99.90
32215;DHT22;18708;53.124;23.190;2023-06-19T06:12:49;19.60;99.90
32215;DHT22;18708;53.124;23.190;2023-06-19T06:15:15;19.90;99.90
32215;DHT22;18708;53.124;23.190;2023-06-19T06:17:41;20.00;99.90
32215;DHT22;18708;53.124;23.190;2023-06-19T06:20:07;20.30;99.90
32215;DHT22;18708;53.124;23.190;2023-06-19T06:22:42;20.40;99.90
32215;DHT22;18708;53.124;23.190;2023-06-19T06:25:08;20.80;99.90
32215;DHT22;18708;53.124;23.190;2023-06-19T06:27:35;21.00;99.90
32215;DHT22;18708;53.124;23.190;2023-06-19T06:30:01;21.20;99.90
32215;DHT22;18708;53.124;23.190;2023-06-19T06:32:27;21.30;99.90
32215;DHT22;18708;53.124;23.190;2023-06-19T06:34:54;21.70;99.90
32215;DHT22;18708;53.124;23.190;2023-06-19T06:37:20;22.10;99.90
32215;DHT22;18708;53.124;23.190;2023-06-19T06:39:48;22.30;99.90
32215;DHT22;18708;53.124;23.190;2023-06-19T06:42:17;22.90;1.00
32215;DHT22;18708;53.124;23.190;2023-06-19T06:44:43;23.40;1.00
32215;DHT22;18708;53.124;23.190;2023-06-19T06:47:09;24.00;99.90
32215;DHT22;18708;53.124;23.190;2023-06-19T06:49:37;24.40;1.00
32215;DHT22;18708;53.124;23.190;2023-06-19T06:52:04;24.80;99.90
32215;DHT22;18708;53.124;23.190;2023-06-19T06:54:30;24.60;1.00
32215;DHT22;18708;53.124;23.190;2023-06-19T06:56:57;24.90;1.00
32215;DHT22;18708;53.124;23.190;2023-06-19T06:59:25;25.20;1.00
32215;DHT22;18708;53.124;23.190;2023-06-19T07:01:53;25.00;1.00
32215;DHT22;18708;53.124;23.190;2023-06-19T07:04:19;25.30;1.00
32215;DHT22;18708;53.124;23.190;2023-06-19T07:06:45;25.30;1.00
32215;DHT22;18708;53.124;23.190;2023-06-19T07:09:11;25.50;1.00
32215;DHT22;18708;53.124;23.190;2023-06-19T07:11:37;25.90;1.00
32215;DHT22;18708;53.124;23.190;2023-06-19T07:14:02;25.90;1.00
32215;DHT22;18708;53.124;23.190;2023-06-19T07:16:29;26.00;1.00
32215;DHT22;18708;53.124;23.190;2023-06-19T07:18:55;26.20;1.00
32215;DHT22;18708;53.124;23.190;2023-06-19T07:21:20;26.20;1.00
32215;DHT22;18708;53.124;23.190;2023-06-19T07:23:46;26.00;99.90
32215;DHT22;18708;53.124;23.190;2023-06-19T07:26:15;25.60;99.90
32215;DHT22;18708;53.124;23.190;2023-06-19T07:28:41;25.70;1.00
32215;DHT22;18708;53.124;23.190;2023-06-19T07:31:07;25.50;99.90
32215;DHT22;18708;53.124;23.190;2023-06-19T07:33:33;25.80;1.00
32215;DHT22;18708;53.124;23.190;2023-06-19T07:36:00;25.90;99.90
32215;DHT22;18708;53.124;23.190;2023-06-19T07:38:28;26.10;99.90
32215;DHT22;18708;53.124;23.190;2023-06-19T07:40:53;26.50;99.90
32215;DHT22;18708;53.124;23.190;2023-06-19T07:43:19;26.80;99.90
32215;DHT22;18708;53.124;23.190;2023-06-19T07:45:48;26.80;99.90
32215;DHT22;18708;53.124;23.190;2023-06-19T07:48:14;26.60;99.90
32215;DHT22;18708;53.124;23.190;2023-06-19T07:50:39;26.60;99.90
32215;DHT22;18708;53.124;23.190;2023-06-19T07:53:05;26.90;99.90
32215;DHT22;18708;53.124;23.190;2023-06-19T07:55:31;27.10;99.90
32215;DHT22;18708;53.124;23.190;2023-06-19T07:57:56;27.40;99.90
32215;DHT22;18708;53.124;23.190;2023-06-19T08:00:26;27.80;99.90
32215;DHT22;18708;53.124;23.190;2023-06-19T08:02:51;27.60;99.90
32215;DHT22;18708;53.124;23.190;2023-06-19T08:05:17;27.40;99.90
32215;DHT22;18708;53.124;23.190;2023-06-19T08:07:43;27.80;99.90
32215;DHT22;18708;53.124;23.190;2023-06-19T08:10:09;28.00;99.90
32215;DHT22;18708;53.124;23.190;2023-06-19T08:12:34;28.10;99.90
32215;DHT22;18708;53.124;23.190;2023-06-19T08:15:00;27.40;99.90
32215;DHT22;18708;53.124;23.190;2023-06-19T08:17:26;27.50;99.90
32215;DHT22;18708;53.124;23.190;2023-06-19T08:19:51;27.20;99.90
32215;DHT22;18708;53.124;23.190;2023-06-19T08:22:17;27.10;99.90
32215;DHT22;18708;53.124;23.190;2023-06-19T08:24:43;27.30;99.90
32215;DHT22;18708;53.124;23.190;2023-06-19T08:27:08;26.90;99.90
32215;DHT22;18708;53.124;23.190;2023-06-19T08:29:34;26.40;99.90
32215;DHT22;18708;53.124;23.190;2023-06-19T08:32:00;26.50;99.90
32215;DHT22;18708;53.124;23.190;2023-06-19T08:34:27;25.70;99.90
32215;DHT22;18708;53.124;23.190;2023-06-19T08:36:53;26.10;99.90
32215;DHT22;18708;53.124;23.190;2023-06-19T08:39:18;26.30;99.90
32215;DHT22;18708;53.124;23.190;2023-06-19T08:41:45;26.60;99.90
32215;DHT22;18708;53.124;23.190;2023-06-19T08:44:11;26.30;99.90
32215;DHT22;18708;53.124;23.190;2023-06-19T08:46:37;26.20;99.90
32215;DHT22;18708;53.124;23.190;2023-06-19T08:49:03;26.10;99.90
32215;DHT22;18708;53.124;23.190;2023-06-19T08:51:31;25.80;99.90
32215;DHT22;18708;53.124;23.190;2023-06-19T08:54:02;25.60;99.90
32215;DHT22;18708;53.124;23.190;2023-06-19T08:56:32;25.50;99.90
32215;DHT22;18708;53.124;23.190;2023-06-19T08:59:13;25.90;99.90
32215;DHT22;18708;53.124;23.190;2023-06-19T09:01:39;25.80;99.90
32215;DHT22;18708;53.124;23.190;2023-06-19T09:04:13;25.90;99.90
32215;DHT22;18708;53.124;23.190;2023-06-19T09:09:46;26.90;99.90
32215;DHT22;18708;53.124;23.190;2023-06-19T09:12:13;27.60;99.90
32215;DHT22;18708;53.124;23.190;2023-06-19T09:14:41;29.00;99.90
32215;DHT22;18708;53.124;23.190;2023-06-19T09:17:12;28.70;99.90
32215;DHT22;18708;53.124;23.190;2023-06-19T09:19:46;28.50;99.90
32215;DHT22;18708;53.124;23.190;2023-06-19T09:22:12;28.40;99.90
32215;DHT22;18708;53.124;23.190;2023-06-19T09:24:40;27.80;99.90
32215;DHT22;18708;53.124;23.190;2023-06-19T09:27:17;28.30;99.90
32215;DHT22;18708;53.124;23.190;2023-06-19T09:29:48;29.00;99.90
32215;DHT22;18708;53.124;23.190;2023-06-19T09:32:27;28.00;99.90
32215;DHT22;18708;53.124;23.190;2023-06-19T09:34:55;28.30;99.90
32215;DHT22;18708;53.124;23.190;2023-06-19T09:37:28;28.40;99.90
32215;DHT22;18708;53.124;23.190;2023-06-19T09:42:31;28.20;99.90
32215;DHT22;18708;53.124;23.190;2023-06-19T09:45:04;28.80;99.90
32215;DHT22;18708;53.124;23.190;2023-06-19T09:47:43;28.80;99.90
32215;DHT22;18708;53.124;23.190;2023-06-19T09:50:12;28.10;99.90
32215;DHT22;18708;53.124;23.190;2023-06-19T09:52:39;27.30;99.90
32215;DHT22;18708;53.124;23.190;2023-06-19T09:55:06;27.80;99.90
32215;DHT22;18708;53.124;23.190;2023-06-19T09:57:32;28.50;99.90
32215;DHT22;18708;53.124;23.190;2023-06-19T09:59:59;29.00;99.90
32215;DHT22;18708;53.124;23.190;2023-06-19T10:02:34;29.30;98.70
32215;DHT22;18708;53.124;23.190;2023-06-19T10:05:01;29.30;98.80
32215;DHT22;18708;53.124;23.190;2023-06-19T10:07:34;28.70;80.60
32215;DHT22;18708;53.124;23.190;2023-06-19T10:10:11;28.40;91.70
32215;DHT22;18708;53.124;23.190;2023-06-19T10:12:42;27.70;80.70
32215;DHT22;18708;53.124;23.190;2023-06-19T10:15:16;27.60;98.80
32215;DHT22;18708;53.124;23.190;2023-06-19T10:17:58;27.80;94.20
32215;DHT22;18708;53.124;23.190;2023-06-19T10:23:13;27.90;66.10
32215;DHT22;18708;53.124;23.190;2023-06-19T10:25:40;28.20;85.20
32215;DHT22;18708;53.124;23.190;2023-06-19T10:30:42;29.90;85.40
32215;DHT22;18708;53.124;23.190;2023-06-19T10:33:08;30.30;66.40
32215;DHT22;18708;53.124;23.190;2023-06-19T10:35:40;30.20;43.30
32215;DHT22;18708;53.124;23.190;2023-06-19T10:38:09;29.90;56.70
32215;DHT22;18708;53.124;23.190;2023-06-19T10:40:36;29.70;56.50
32215;DHT22;18708;53.124;23.190;2023-06-19T10:43:03;29.40;47.20
32215;DHT22;18708;53.124;23.190;2023-06-19T10:45:29;28.90;52.00
32215;DHT22;18708;53.124;23.190;2023-06-19T10:47:55;28.80;34.20
32215;DHT22;18708;53.124;23.190;2023-06-19T10:50:21;29.10;51.80
32215;DHT22;18708;53.124;23.190;2023-06-19T10:52:48;29.20;46.60
32215;DHT22;18708;53.124;23.190;2023-06-19T10:55:17;29.50;55.00
32215;DHT22;18708;53.124;23.190;2023-06-19T10:57:47;29.60;39.80
32215;DHT22;18708;53.124;23.190;2023-06-19T11:00:28;29.40;39.80
32215;DHT22;18708;53.124;23.190;2023-06-19T11:02:55;29.40;33.30
32215;DHT22;18708;53.124;23.190;2023-06-19T11:05:22;28.90;29.80
32215;DHT22;18708;53.124;23.190;2023-06-19T11:07:58;28.60;28.60
32215;DHT22;18708;53.124;23.190;2023-06-19T11:10:26;28.60;31.50
32215;DHT22;18708;53.124;23.190;2023-06-19T11:12:57;28.30;21.10
32215;DHT22;18708;53.124;23.190;2023-06-19T11:15:30;28.30;48.20
32215;DHT22;18708;53.124;23.190;2023-06-19T11:17:56;28.30;56.20
32215;DHT22;18708;53.124;23.190;2023-06-19T11:20:22;28.00;42.40
32215;DHT22;18708;53.124;23.190;2023-06-19T11:22:55;28.00;44.20
32215;DHT22;18708;53.124;23.190;2023-06-19T11:25:21;28.10;41.40
32215;DHT22;18708;53.124;23.190;2023-06-19T11:27:46;28.20;45.20
32215;DHT22;18708;53.124;23.190;2023-06-19T11:30:18;28.40;42.70
32215;DHT22;18708;53.124;23.190;2023-06-19T11:32:46;28.30;34.20
32215;DHT22;18708;53.124;23.190;2023-06-19T11:35:15;28.20;23.20
32215;DHT22;18708;53.124;23.190;2023-06-19T11:37:42;27.60;12.30
32215;DHT22;18708;53.124;23.190;2023-06-19T11:40:09;27.50;11.10
32215;DHT22;18708;53.124;23.190;2023-06-19T11:42:53;28.10;38.80
32215;DHT22;18708;53.124;23.190;2023-06-19T11:45:20;28.30;27.20
32215;DHT22;18708;53.124;23.190;2023-06-19T11:47:46;28.40;33.80
32215;DHT22;18708;53.124;23.190;2023-06-19T11:50:15;28.50;17.90
32215;DHT22;18708;53.124;23.190;2023-06-19T11:52:43;28.30;21.90
32215;DHT22;18708;53.124;23.190;2023-06-19T11:55:10;27.40;13.60
32215;DHT22;18708;53.124;23.190;2023-06-19T11:57:36;27.50;18.30
32215;DHT22;18708;53.124;23.190;2023-06-19T12:00:02;28.20;23.20
32215;DHT22;18708;53.124;23.190;2023-06-19T12:02:32;28.80;16.10
32215;DHT22;18708;53.124;23.190;2023-06-19T12:04:58;28.60;2.40
32215;DHT22;18708;53.124;23.190;2023-06-19T12:07:25;29.00;11.00
32215;DHT22;18708;53.124;23.190;2023-06-19T12:09:50;29.40;19.60
32215;DHT22;18708;53.124;23.190;2023-06-19T12:12:17;29.10;4.50
32215;DHT22;18708;53.124;23.190;2023-06-19T12:14:43;29.40;19.60
32215;DHT22;18708;53.124;23.190;2023-06-19T12:17:09;28.10;1.10
32215;DHT22;18708;53.124;23.190;2023-06-19T12:19:35;28.50;15.50
32215;DHT22;18708;53.124;23.190;2023-06-19T12:22:01;28.90;16.40
32215;DHT22;18708;53.124;23.190;2023-06-19T12:24:27;28.90;5.50
32215;DHT22;18708;53.124;23.190;2023-06-19T12:26:52;28.80;10.60
32215;DHT22;18708;53.124;23.190;2023-06-19T12:29:18;29.20;13.50
32215;DHT22;18708;53.124;23.190;2023-06-19T12:31:46;29.40;8.60
32215;DHT22;18708;53.124;23.190;2023-06-19T12:34:11;29.70;2.90
32215;DHT22;18708;53.124;23.190;2023-06-19T12:36:37;29.80;3.20
32215;DHT22;18708;53.124;23.190;2023-06-19T12:39:03;30.10;1.00
32215;DHT22;18708;53.124;23.190;2023-06-19T12:41:31;29.60;1.00
32215;DHT22;18708;53.124;23.190;2023-06-19T12:43:57;29.50;1.00
32215;DHT22;18708;53.124;23.190;2023-06-19T12:46:23;30.00;1.00
32215;DHT22;18708;53.124;23.190;2023-06-19T12:48:48;29.60;1.00
32215;DHT22;18708;53.124;23.190;2023-06-19T12:51:17;29.90;1.00
32215;DHT22;18708;53.124;23.190;2023-06-19T12:53:43;30.20;1.00
32215;DHT22;18708;53.124;23.190;2023-06-19T12:56:09;30.40;1.00
32215;DHT22;18708;53.124;23.190;2023-06-19T12:58:35;30.30;1.00
32215;DHT22;18708;53.124;23.190;2023-06-19T13:01:00;30.60;1.00
32215;DHT22;18708;53.124;23.190;2023-06-19T13:03:26;30.90;1.00
32215;DHT22;18708;53.124;23.190;2023-06-19T13:05:52;30.60;1.00
32215;DHT22;18708;53.124;23.190;2023-06-19T13:08:17;30.80;1.00
32215;DHT22;18708;53.124;23.190;2023-06-19T13:10:43;29.90;1.00
32215;DHT22;18708;53.124;23.190;2023-06-19T13:13:09;29.40;1.00
32215;DHT22;18708;53.124;23.190;2023-06-19T13:15:36;29.60;1.00
32215;DHT22;18708;53.124;23.190;2023-06-19T13:18:01;29.80;1.00
32215;DHT22;18708;53.124;23.190;2023-06-19T13:20:27;29.70;1.00
32215;DHT22;18708;53.124;23.190;2023-06-19T13:22:53;28.90;1.00
32215;DHT22;18708;53.124;23.190;2023-06-19T13:25:19;28.90;1.00
32215;DHT22;18708;53.124;23.190;2023-06-19T13:27:45;28.40;1.00
32215;DHT22;18708;53.124;23.190;2023-06-19T13:30:11;28.00;1.00
32215;DHT22;18708;53.124;23.190;2023-06-19T13:32:37;27.90;1.00
32215;DHT22;18708;53.124;23.190;2023-06-19T13:35:05;27.60;1.00
32215;DHT22;18708;53.124;23.190;2023-06-19T13:37:31;27.70;1.00
32215;DHT22;18708;53.124;23.190;2023-06-19T13:39:56;27.90;1.00
32215;DHT22;18708;53.124;23.190;2023-06-19T13:42:23;27.80;1.00
32215;DHT22;18708;53.124;23.190;2023-06-19T13:44:49;27.70;1.00
32215;DHT22;18708;53.124;23.190;2023-06-19T13:47:14;27.70;1.00
32215;DHT22;18708;53.124;23.190;2023-06-19T13:49:40;27.60;1.00
32215;DHT22;18708;53.124;23.190;2023-06-19T13:52:06;27.50;1.00
32215;DHT22;18708;53.124;23.190;2023-06-19T13:54:32;27.40;1.00
32215;DHT22;18708;53.124;23.190;2023-06-19T13:56:59;27.30;1.00
32215;DHT22;18708;53.124;23.190;2023-06-19T13:59:24;27.20;1.00
32215;DHT22;18708;53.124;23.190;2023-06-19T14:01:50;27.00;1.00
32215;DHT22;18708;53.124;23.190;2023-06-19T14:04:18;27.00;1.00
32215;DHT22;18708;53.124;23.190;2023-06-19T14:06:44;27.00;1.00
32215;DHT22;18708;53.124;23.190;2023-06-19T14:09:10;26.90;1.00
32215;DHT22;18708;53.124;23.190;2023-06-19T14:11:35;26.90;1.00
32215;DHT22;18708;53.124;23.190;2023-06-19T14:14:01;26.90;1.00
32215;DHT22;18708;53.124;23.190;2023-06-19T14:16:27;26.80;1.00
32215;DHT22;18708;53.124;23.190;2023-06-19T14:18:52;26.70;1.00
32215;DHT22;18708;53.124;23.190;2023-06-19T14:21:18;26.70;1.00
32215;DHT22;18708;53.124;23.190;2023-06-19T14:23:44;26.80;1.00
32215;DHT22;18708;53.124;23.190;2023-06-19T14:26:12;26.60;1.00
32215;DHT22;18708;53.124;23.190;2023-06-19T14:28:38;26.20;1.00
32215;DHT22;18708;53.124;23.190;2023-06-19T14:31:07;26.40;1.00
32215;DHT22;18708;53.124;23.190;2023-06-19T14:33:33;26.50;1.80
32215;DHT22;18708;53.124;23.190;2023-06-19T14:36:01;26.40;1.00
32215;DHT22;18708;53.124;23.190;2023-06-19T14:38:28;26.50;1.00
32215;DHT22;18708;53.124;23.190;2023-06-19T14:40:57;26.30;1.00
32215;DHT22;18708;53.124;23.190;2023-06-19T14:43:24;26.50;14.50
32215;DHT22;18708;53.124;23.190;2023-06-19T14:45:50;26.50;1.00
32215;DHT22;18708;53.124;23.190;2023-06-19T14:48:15;26.60;1.00
32215;DHT22;18708;53.124;23.190;2023-06-19T14:50:41;26.80;1.00
32215;DHT22;18708;53.124;23.190;2023-06-19T14:53:07;26.70;1.00
32215;DHT22;18708;53.124;23.190;2023-06-19T14:55:32;26.80;1.00
32215;DHT22;18708;53.124;23.190;2023-06-19T14:57:58;26.80;1.00
32215;DHT22;18708;53.124;23.190;2023-06-19T15:00:26;26.70;1.00
32215;DHT22;18708;53.124;23.190;2023-06-19T15:02:52;26.80;1.00
32215;DHT22;18708;53.124;23.190;2023-06-19T15:05:18;26.80;1.00
32215;DHT22;18708;53.124;23.190;2023-06-19T15:07:43;26.80;1.00
32215;DHT22;18708;53.124;23.190;2023-06-19T15:10:09;26.70;1.00
32215;DHT22;18708;53.124;23.190;2023-06-19T15:12:36;26.70;1.00
32215;DHT22;18708;53.124;23.190;2023-06-19T15:15:04;26.60;1.00
32215;DHT22;18708;53.124;23.190;2023-06-19T15:17:29;26.50;1.00
32215;DHT22;18708;53.124;23.190;2023-06-19T15:19:55;26.50;1.00
32215;DHT22;18708;53.124;23.190;2023-06-19T15:22:21;26.50;1.00
32215;DHT22;18708;53.124;23.190;2023-06-19T15:24:46;26.40;1.00
32215;DHT22;18708;53.124;23.190;2023-06-19T15:27:14;26.40;1.00
32215;DHT22;18708;53.124;23.190;2023-06-19T15:29:40;26.40;1.00
32215;DHT22;18708;53.124;23.190;2023-06-19T15:32:06;26.50;1.00
32215;DHT22;18708;53.124;23.190;2023-06-19T15:34:34;26.50;1.00